createdAt,value
2023-04-22T00:00:27.443Z,67.38
2023-04-22T00:01:00.103Z,67.28
2023-04-22T00:01:32.750Z,67.49
2023-04-22T00:02:05.501Z,67.38
2023-04-22T00:02:38.344Z,67.28
2023-04-22T00:03:11.376Z,67.28
2023-04-22T00:03:37.974Z,67.49
2023-04-22T00:04:04.447Z,67.69
2023-04-22T00:04:31.157Z,67.79
2023-04-22T00:04:57.590Z,67.79
2023-04-22T00:05:30.423Z,67.28
2023-04-22T00:06:03.087Z,67.18
2023-04-22T00:06:35.753Z,67.38
2023-04-22T00:07:08.426Z,67.08
2023-04-22T00:07:41.090Z,66.46
2023-04-22T00:08:13.761Z,66.77
2023-04-22T00:08:46.444Z,66.87
2023-04-22T00:09:19.120Z,67.08
2023-04-22T00:09:51.778Z,67.08
2023-04-22T00:10:24.449Z,67.28
2023-04-22T00:10:57.117Z,67.28
2023-04-22T00:11:29.779Z,67.28
2023-04-22T00:12:02.453Z,67.49
2023-04-22T00:12:35.116Z,67.38
2023-04-22T00:13:07.801Z,67.49
2023-04-22T00:13:40.475Z,67.69
2023-04-22T00:14:13.153Z,67.79
2023-04-22T00:14:45.829Z,67.90
2023-04-22T00:15:18.510Z,68.00
2023-04-22T00:15:51.374Z,68.21
2023-04-22T00:16:24.140Z,68.41
2023-04-22T00:16:56.852Z,68.72
2023-04-22T00:17:29.540Z,68.30
2023-04-22T00:18:02.273Z,68.30
2023-04-22T00:18:34.958Z,68.62
2023-04-22T00:19:07.638Z,68.72
2023-04-22T00:19:40.737Z,68.82
2023-04-22T00:20:07.138Z,68.72
2023-04-22T00:20:39.822Z,68.72
2023-04-22T00:21:12.502Z,68.44
2023-04-22T00:21:45.177Z,68.34
2023-04-22T00:22:17.854Z,68.30
2023-04-22T00:22:50.536Z,68.34
2023-04-22T00:23:23.211Z,68.34
2023-04-22T00:23:55.930Z,68.65
2023-04-22T00:24:28.622Z,68.65
2023-04-22T00:25:01.266Z,68.75
2023-04-22T00:25:33.926Z,68.65
2023-04-22T00:26:06.644Z,68.75
2023-04-22T00:26:39.298Z,68.85
2023-04-22T00:27:11.959Z,68.65
2023-04-22T00:27:44.623Z,68.96
2023-04-22T00:28:17.300Z,69.06
2023-04-22T00:28:49.998Z,69.67
2023-04-22T00:29:22.687Z,70.18
2023-04-22T00:29:55.354Z,70.50
2023-04-22T00:30:28.017Z,70.80
2023-04-22T00:31:00.728Z,71.21
2023-04-22T00:31:33.531Z,71.11
2023-04-22T00:32:06.206Z,70.70
2023-04-22T00:32:38.897Z,70.29
2023-04-22T00:33:11.584Z,69.88
2023-04-22T00:33:44.234Z,69.60
2023-04-22T00:34:16.900Z,69.40
2023-04-22T00:34:49.574Z,69.40
2023-04-22T00:35:22.243Z,69.16
2023-04-22T00:35:54.909Z,69.29
2023-04-22T00:36:27.588Z,69.29
2023-04-22T00:37:00.258Z,69.29
2023-04-22T00:37:32.936Z,69.29
2023-04-22T00:38:05.600Z,69.19
2023-04-22T00:38:38.265Z,69.29
2023-04-22T00:39:10.952Z,69.40
2023-04-22T00:39:43.816Z,69.29
2023-04-22T00:40:16.516Z,68.88
2023-04-22T00:40:49.174Z,68.99
2023-04-22T00:41:21.853Z,68.99
2023-04-22T00:41:54.522Z,68.99
2023-04-22T00:42:27.227Z,68.88
2023-04-22T00:42:59.911Z,69.19
2023-04-22T00:43:32.563Z,68.88
2023-04-22T00:44:05.238Z,68.88
2023-04-22T00:44:37.916Z,68.78
2023-04-22T00:45:10.578Z,68.68
2023-04-22T00:45:43.289Z,68.68
2023-04-22T00:46:14.409Z,68.48
2023-04-22T00:46:47.081Z,68.48
2023-04-22T00:47:19.768Z,68.57
2023-04-22T00:47:52.456Z,68.68
2023-04-22T00:48:26.847Z,68.48
2023-04-22T00:48:56.225Z,68.68
2023-04-22T00:49:28.883Z,68.78
2023-04-22T00:50:01.567Z,68.78
2023-04-22T00:50:34.236Z,68.99
2023-04-22T00:51:06.894Z,68.88
2023-04-22T00:51:39.558Z,68.78
2023-04-22T00:52:12.234Z,68.68
2023-04-22T00:52:44.892Z,68.57
2023-04-22T00:53:17.556Z,68.48
2023-04-22T00:53:50.220Z,68.57
2023-04-22T00:54:22.883Z,68.68
2023-04-22T00:54:55.568Z,68.68
2023-04-22T00:55:28.233Z,68.68
2023-04-22T00:56:00.896Z,68.78
2023-04-22T00:56:33.566Z,68.88
2023-04-22T00:57:06.233Z,69.09
2023-04-22T00:57:38.909Z,68.99
2023-04-22T00:58:11.556Z,69.09
2023-04-22T00:58:44.231Z,69.19
2023-04-22T00:59:16.906Z,69.64
2023-04-22T00:59:49.600Z,69.53
2023-04-22T01:00:22.294Z,69.32
2023-04-22T01:00:55.044Z,69.32
2023-04-22T01:01:27.811Z,69.23
2023-04-22T01:02:00.517Z,69.43
2023-04-22T01:02:33.378Z,69.32
2023-04-22T01:03:06.251Z,69.32
2023-04-22T01:03:39.348Z,69.02
2023-04-22T01:04:05.683Z,68.91
2023-04-22T01:04:38.347Z,69.23
2023-04-22T01:05:11.046Z,69.32
2023-04-22T01:05:43.714Z,69.23
2023-04-22T01:06:16.383Z,69.32
2023-04-22T01:06:47.467Z,69.43
2023-04-22T01:07:20.120Z,69.53
2023-04-22T01:07:52.811Z,69.32
2023-04-22T01:08:25.453Z,69.43
2023-04-22T01:08:58.120Z,69.43
2023-04-22T01:09:30.780Z,69.23
2023-04-22T01:10:03.475Z,69.02
2023-04-22T01:10:36.154Z,69.02
2023-04-22T01:11:08.793Z,68.91
2023-04-22T01:11:41.459Z,69.12
2023-04-22T01:12:14.124Z,69.12
2023-04-22T01:12:46.792Z,69.23
2023-04-22T01:13:19.472Z,69.12
2023-04-22T01:13:52.134Z,69.32
2023-04-22T01:14:24.806Z,69.43
2023-04-22T01:14:57.468Z,69.53
2023-04-22T01:15:30.147Z,69.43
2023-04-22T01:16:02.834Z,69.53
2023-04-22T01:16:35.563Z,69.32
2023-04-22T01:17:08.486Z,69.43
2023-04-22T01:17:34.919Z,69.53
2023-04-22T01:18:07.652Z,69.43
2023-04-22T01:18:38.665Z,69.53
2023-04-22T01:19:11.357Z,69.53
2023-04-22T01:19:44.373Z,69.23
2023-04-22T01:20:10.816Z,68.91
2023-04-22T01:20:43.463Z,69.02
2023-04-22T01:21:16.144Z,69.23
2023-04-22T01:21:47.220Z,69.43
2023-04-22T01:22:19.897Z,69.32
2023-04-22T01:22:52.567Z,69.43
2023-04-22T01:23:25.246Z,69.53
2023-04-22T01:23:57.911Z,69.53
2023-04-22T01:24:30.593Z,69.02
2023-04-22T01:25:03.255Z,69.12
2023-04-22T01:25:35.934Z,69.12
2023-04-22T01:26:08.603Z,69.43
2023-04-22T01:26:41.266Z,69.53
2023-04-22T01:27:13.941Z,69.64
2023-04-22T01:27:46.613Z,69.64
2023-04-22T01:28:19.279Z,69.64
2023-04-22T01:28:51.950Z,69.74
2023-04-22T01:29:24.647Z,69.74
2023-04-22T01:29:57.307Z,69.64
2023-04-22T01:30:29.991Z,69.32
2023-04-22T01:31:02.666Z,69.46
2023-04-22T01:31:35.372Z,69.56
2023-04-22T01:32:08.076Z,69.87
2023-04-22T01:32:40.820Z,69.98
2023-04-22T01:33:13.577Z,70.08
2023-04-22T01:33:46.217Z,69.87
2023-04-22T01:34:18.914Z,69.67
2023-04-22T01:34:51.607Z,69.46
2023-04-22T01:35:24.291Z,69.67
2023-04-22T01:35:56.952Z,69.67
2023-04-22T01:36:29.612Z,69.67
2023-04-22T01:37:02.282Z,69.77
2023-04-22T01:37:34.987Z,69.87
2023-04-22T01:38:07.680Z,69.77
2023-04-22T01:38:40.352Z,69.87
2023-04-22T01:39:13.035Z,70.08
2023-04-22T01:39:45.723Z,69.98
2023-04-22T01:40:18.400Z,70.08
2023-04-22T01:40:51.068Z,69.87
2023-04-22T01:41:23.735Z,69.56
2023-04-22T01:41:56.396Z,69.56
2023-04-22T01:42:29.074Z,69.77
2023-04-22T01:43:01.737Z,70.18
2023-04-22T01:43:34.422Z,69.98
2023-04-22T01:44:07.198Z,70.08
2023-04-22T01:44:39.874Z,70.18
2023-04-22T01:45:12.551Z,69.77
2023-04-22T01:45:45.246Z,69.87
2023-04-22T01:46:18.052Z,70.08
2023-04-22T01:46:50.735Z,70.08
2023-04-22T01:47:23.539Z,69.87
2023-04-22T01:47:56.325Z,69.87
2023-04-22T01:48:29.023Z,69.98
2023-04-22T01:49:01.675Z,69.77
2023-04-22T01:49:34.340Z,69.56
2023-04-22T01:50:07.011Z,69.56
2023-04-22T01:50:39.697Z,69.56
2023-04-22T01:51:12.368Z,69.46
2023-04-22T01:51:45.039Z,69.36
2023-04-22T01:52:17.746Z,69.36
2023-04-22T01:52:50.405Z,69.36
2023-04-22T01:53:23.083Z,69.67
2023-04-22T01:53:55.763Z,69.87
2023-04-22T01:54:28.436Z,69.98
2023-04-22T01:55:01.117Z,69.87
2023-04-22T01:55:33.813Z,69.77
2023-04-22T01:56:06.504Z,69.87
2023-04-22T01:56:39.171Z,69.46
2023-04-22T01:57:11.836Z,69.67
2023-04-22T01:57:44.518Z,69.70
2023-04-22T01:58:17.169Z,69.56
2023-04-22T01:58:48.293Z,69.56
2023-04-22T01:59:20.965Z,69.60
2023-04-22T01:59:53.641Z,69.39
2023-04-22T02:00:26.288Z,69.56
2023-04-22T02:00:59.000Z,69.60
2023-04-22T02:01:31.690Z,69.70
2023-04-22T02:02:04.412Z,69.60
2023-04-22T02:02:37.161Z,69.70
2023-04-22T02:03:09.914Z,69.60
2023-04-22T02:03:42.701Z,69.49
2023-04-22T02:04:15.416Z,69.49
2023-04-22T02:04:48.144Z,69.39
2023-04-22T02:05:20.808Z,69.49
2023-04-22T02:05:53.487Z,69.39
2023-04-22T02:06:26.158Z,69.60
2023-04-22T02:06:58.832Z,69.70
2023-04-22T02:07:31.504Z,69.60
2023-04-22T02:08:04.167Z,69.60
2023-04-22T02:08:36.825Z,69.39
2023-04-22T02:09:09.492Z,69.26
2023-04-22T02:09:42.389Z,69.26
2023-04-22T02:10:08.698Z,69.26
2023-04-22T02:10:41.386Z,69.29
2023-04-22T02:11:14.069Z,69.49
2023-04-22T02:11:46.734Z,69.29
2023-04-22T02:12:19.442Z,69.18
2023-04-22T02:12:52.133Z,69.29
2023-04-22T02:13:24.794Z,69.18
2023-04-22T02:13:57.484Z,69.18
2023-04-22T02:14:30.139Z,69.29
2023-04-22T02:15:02.803Z,69.29
2023-04-22T02:15:35.486Z,69.39
2023-04-22T02:16:08.241Z,69.39
2023-04-22T02:16:40.962Z,68.98
2023-04-22T02:17:13.622Z,69.09
2023-04-22T02:17:46.434Z,69.18
2023-04-22T02:18:19.062Z,69.18
2023-04-22T02:18:51.733Z,69.39
2023-04-22T02:19:24.425Z,69.09
2023-04-22T02:19:57.120Z,69.29
2023-04-22T02:20:29.771Z,69.29
2023-04-22T02:21:02.473Z,69.29
2023-04-22T02:21:35.126Z,69.29
2023-04-22T02:22:07.820Z,68.98
2023-04-22T02:22:40.502Z,69.09
2023-04-22T02:23:13.162Z,69.29
2023-04-22T02:23:45.834Z,69.39
2023-04-22T02:24:18.492Z,69.49
2023-04-22T02:24:51.161Z,69.18
2023-04-22T02:25:23.839Z,69.09
2023-04-22T02:25:54.925Z,68.98
2023-04-22T02:26:27.594Z,68.88
2023-04-22T02:27:00.292Z,69.09
2023-04-22T02:27:32.942Z,69.39
2023-04-22T02:28:05.623Z,69.60
2023-04-22T02:28:38.291Z,69.29
2023-04-22T02:29:10.963Z,69.18
2023-04-22T02:29:43.641Z,69.09
2023-04-22T02:30:16.352Z,69.18
2023-04-22T02:30:49.070Z,69.39
2023-04-22T02:31:21.804Z,69.49
2023-04-22T02:31:54.532Z,69.60
2023-04-22T02:32:27.294Z,69.39
2023-04-22T02:33:00.031Z,69.29
2023-04-22T02:33:32.721Z,69.49
2023-04-22T02:34:05.392Z,69.49
2023-04-22T02:34:38.128Z,69.60
2023-04-22T02:35:10.789Z,69.80
2023-04-22T02:35:43.468Z,70.01
2023-04-22T02:36:16.112Z,70.11
2023-04-22T02:36:48.784Z,70.11
2023-04-22T02:37:21.452Z,69.70
2023-04-22T02:37:54.122Z,69.70
2023-04-22T02:38:26.793Z,69.80
2023-04-22T02:38:59.448Z,69.70
2023-04-22T02:39:32.120Z,69.80
2023-04-22T02:40:04.801Z,70.01
2023-04-22T02:40:37.468Z,70.01
2023-04-22T02:41:10.145Z,70.01
2023-04-22T02:41:42.826Z,70.01
2023-04-22T02:42:15.487Z,70.11
2023-04-22T02:42:48.146Z,69.90
2023-04-22T02:43:20.845Z,70.01
2023-04-22T02:43:53.501Z,70.01
2023-04-22T02:44:26.168Z,70.04
2023-04-22T02:44:58.828Z,70.04
2023-04-22T02:45:31.492Z,69.94
2023-04-22T02:46:04.264Z,69.94
2023-04-22T02:46:36.966Z,70.04
2023-04-22T02:47:09.653Z,70.04
2023-04-22T02:47:42.436Z,70.25
2023-04-22T02:48:15.105Z,70.14
2023-04-22T02:48:47.757Z,70.25
2023-04-22T02:49:20.449Z,70.14
2023-04-22T02:49:53.114Z,70.35
2023-04-22T02:50:25.801Z,70.56
2023-04-22T02:50:58.469Z,70.45
2023-04-22T02:51:31.153Z,70.45
2023-04-22T02:52:03.816Z,70.66
2023-04-22T02:52:36.509Z,70.76
2023-04-22T02:53:09.218Z,70.45
2023-04-22T02:53:41.869Z,70.35
2023-04-22T02:54:14.544Z,70.56
2023-04-22T02:54:47.218Z,70.76
2023-04-22T02:55:19.944Z,70.86
2023-04-22T02:55:52.623Z,70.86
2023-04-22T02:56:25.292Z,70.86
2023-04-22T02:56:57.964Z,70.97
2023-04-22T02:57:30.636Z,71.07
2023-04-22T02:58:03.332Z,70.86
2023-04-22T02:58:36.001Z,70.76
2023-04-22T02:59:08.661Z,70.66
2023-04-22T02:59:41.641Z,70.86
2023-04-22T03:00:07.994Z,70.97
2023-04-22T03:00:40.723Z,71.20
2023-04-22T03:01:13.405Z,71.31
2023-04-22T03:01:46.071Z,71.41
2023-04-22T03:02:18.786Z,71.41
2023-04-22T03:02:51.683Z,71.31
2023-04-22T03:03:24.602Z,71.41
2023-04-22T03:03:57.508Z,71.62
2023-04-22T03:04:24.035Z,71.41
2023-04-22T03:04:56.843Z,71.41
2023-04-22T03:05:29.539Z,71.62
2023-04-22T03:06:02.216Z,71.62
2023-04-22T03:06:34.967Z,71.51
2023-04-22T03:07:07.680Z,71.62
2023-04-22T03:07:40.334Z,71.62
2023-04-22T03:08:13.007Z,71.72
2023-04-22T03:08:45.709Z,71.82
2023-04-22T03:09:18.370Z,71.82
2023-04-22T03:09:51.037Z,71.82
2023-04-22T03:10:23.706Z,71.82
2023-04-22T03:10:56.404Z,71.72
2023-04-22T03:11:29.063Z,71.82
2023-04-22T03:12:01.734Z,71.92
2023-04-22T03:12:34.400Z,72.03
2023-04-22T03:13:07.075Z,72.13
2023-04-22T03:13:39.766Z,72.03
2023-04-22T03:14:12.427Z,72.13
2023-04-22T03:14:45.101Z,72.13
2023-04-22T03:15:21.114Z,72.24
2023-04-22T03:15:47.710Z,72.34
2023-04-22T03:16:20.432Z,72.24
2023-04-22T03:16:53.251Z,72.44
2023-04-22T03:17:26.183Z,72.54
2023-04-22T03:17:58.908Z,72.58
2023-04-22T03:18:31.634Z,72.58
2023-04-22T03:19:04.282Z,72.68
2023-04-22T03:19:37.072Z,72.68
2023-04-22T03:20:09.881Z,72.68
2023-04-22T03:20:42.539Z,72.58
2023-04-22T03:21:15.209Z,72.78
2023-04-22T03:21:47.895Z,72.88
2023-04-22T03:22:20.564Z,72.99
2023-04-22T03:22:53.252Z,72.88
2023-04-22T03:23:25.926Z,72.99
2023-04-22T03:23:58.576Z,72.68
2023-04-22T03:24:31.265Z,72.58
2023-04-22T03:25:03.956Z,72.99
2023-04-22T03:25:36.656Z,73.09
2023-04-22T03:26:09.300Z,73.19
2023-04-22T03:26:41.981Z,73.19
2023-04-22T03:27:13.078Z,73.19
2023-04-22T03:27:45.747Z,73.50
2023-04-22T03:28:18.421Z,73.50
2023-04-22T03:28:51.124Z,73.30
2023-04-22T03:29:23.795Z,73.30
2023-04-22T03:29:56.447Z,73.30
2023-04-22T03:30:29.112Z,73.19
2023-04-22T03:31:01.786Z,73.30
2023-04-22T03:31:34.502Z,73.40
2023-04-22T03:32:07.240Z,73.54
2023-04-22T03:32:39.936Z,73.61
2023-04-22T03:33:12.614Z,73.40
2023-04-22T03:33:45.285Z,73.40
2023-04-22T03:34:17.948Z,73.43
2023-04-22T03:34:50.640Z,73.40
2023-04-22T03:35:23.331Z,73.54
2023-04-22T03:35:56.000Z,73.74
2023-04-22T03:36:28.691Z,73.85
2023-04-22T03:37:01.362Z,74.05
2023-04-22T03:37:34.036Z,74.05
2023-04-22T03:38:06.699Z,73.95
2023-04-22T03:38:39.408Z,73.85
2023-04-22T03:39:12.073Z,73.95
2023-04-22T03:39:44.748Z,74.05
2023-04-22T03:40:17.410Z,74.05
2023-04-22T03:40:51.567Z,73.95
2023-04-22T03:41:17.885Z,74.26
2023-04-22T03:41:50.584Z,74.36
2023-04-22T03:42:23.228Z,74.77
2023-04-22T03:42:55.918Z,74.98
2023-04-22T03:43:28.581Z,75.29
2023-04-22T03:44:02.102Z,75.70
2023-04-22T03:44:28.310Z,75.90
2023-04-22T03:45:00.975Z,76.04
2023-04-22T03:45:33.731Z,75.94
2023-04-22T03:46:06.441Z,75.94
2023-04-22T03:46:39.132Z,75.63
2023-04-22T03:47:05.814Z,75.73
2023-04-22T03:47:38.826Z,75.73
2023-04-22T03:48:11.506Z,75.73
2023-04-22T03:48:44.184Z,75.43
2023-04-22T03:49:16.870Z,75.63
2023-04-22T03:49:49.518Z,76.04
2023-04-22T03:50:22.188Z,75.84
2023-04-22T03:50:54.853Z,75.73
2023-04-22T03:51:27.517Z,75.94
2023-04-22T03:52:00.212Z,75.84
2023-04-22T03:52:32.887Z,75.63
2023-04-22T03:53:05.541Z,75.63
2023-04-22T03:53:38.215Z,75.43
2023-04-22T03:54:10.879Z,75.43
2023-04-22T03:54:43.549Z,75.63
2023-04-22T03:55:16.217Z,75.63
2023-04-22T03:55:48.888Z,75.53
2023-04-22T03:56:21.584Z,75.43
2023-04-22T03:56:54.244Z,75.32
2023-04-22T03:57:26.930Z,75.22
2023-04-22T03:57:59.582Z,75.22
2023-04-22T03:58:32.253Z,75.32
2023-04-22T03:59:04.940Z,75.32
2023-04-22T03:59:37.910Z,75.53
2023-04-22T04:00:04.268Z,75.43
2023-04-22T04:00:36.928Z,75.32
2023-04-22T04:01:09.604Z,75.22
2023-04-22T04:01:42.279Z,75.43
2023-04-22T04:02:15.069Z,75.43
2023-04-22T04:02:48.018Z,75.43
2023-04-22T04:03:21.067Z,76.04
2023-04-22T04:03:47.500Z,76.35
2023-04-22T04:04:20.548Z,76.76
2023-04-22T04:04:47.445Z,76.87
2023-04-22T04:05:13.992Z,76.76
2023-04-22T04:05:46.742Z,76.66
2023-04-22T04:06:19.426Z,76.56
2023-04-22T04:06:52.094Z,76.70
2023-04-22T04:07:24.785Z,76.80
2023-04-22T04:07:57.455Z,76.59
2023-04-22T04:08:30.122Z,76.80
2023-04-22T04:09:02.816Z,77.22
2023-04-22T04:09:35.458Z,77.62
2023-04-22T04:10:08.116Z,77.62
2023-04-22T04:10:40.793Z,77.11
2023-04-22T04:11:13.458Z,76.80
2023-04-22T04:11:46.131Z,76.59
2023-04-22T04:12:18.822Z,77.01
2023-04-22T04:12:51.499Z,77.11
2023-04-22T04:13:24.159Z,76.70
2023-04-22T04:13:56.827Z,76.59
2023-04-22T04:14:29.497Z,76.80
2023-04-22T04:15:02.202Z,77.01
2023-04-22T04:15:34.894Z,77.11
2023-04-22T04:16:07.605Z,77.22
2023-04-22T04:16:40.289Z,77.31
2023-04-22T04:17:12.961Z,77.31
2023-04-22T04:17:45.694Z,77.11
2023-04-22T04:18:18.361Z,77.01
2023-04-22T04:18:51.026Z,76.90
2023-04-22T04:19:23.702Z,77.11
2023-04-22T04:19:56.351Z,77.31
2023-04-22T04:20:29.035Z,77.31
2023-04-22T04:21:01.700Z,77.22
2023-04-22T04:21:34.375Z,77.31
2023-04-22T04:22:07.057Z,77.31
2023-04-22T04:22:39.732Z,77.31
2023-04-22T04:23:12.387Z,77.42
2023-04-22T04:23:45.057Z,77.22
2023-04-22T04:24:17.732Z,77.22
2023-04-22T04:24:50.404Z,77.22
2023-04-22T04:25:23.083Z,77.22
2023-04-22T04:25:55.778Z,77.11
2023-04-22T04:26:28.450Z,77.11
2023-04-22T04:27:01.125Z,77.01
2023-04-22T04:27:33.797Z,77.22
2023-04-22T04:28:06.461Z,77.22
2023-04-22T04:28:39.165Z,77.31
2023-04-22T04:29:11.821Z,77.42
2023-04-22T04:29:44.501Z,77.73
2023-04-22T04:30:17.155Z,77.94
2023-04-22T04:30:49.895Z,78.24
2023-04-22T04:31:22.588Z,78.24
2023-04-22T04:31:55.251Z,78.45
2023-04-22T04:32:27.961Z,78.55
2023-04-22T04:33:00.679Z,77.83
2023-04-22T04:33:33.384Z,77.42
2023-04-22T04:34:06.050Z,76.90
2023-04-22T04:34:38.740Z,76.70
2023-04-22T04:35:11.407Z,76.70
2023-04-22T04:35:44.054Z,76.90
2023-04-22T04:36:16.736Z,76.80
2023-04-22T04:36:49.407Z,76.49
2023-04-22T04:37:22.088Z,76.49
2023-04-22T04:37:54.775Z,76.70
2023-04-22T04:38:27.456Z,76.80
2023-04-22T04:39:00.140Z,76.80
2023-04-22T04:39:32.788Z,76.80
2023-04-22T04:40:05.472Z,76.80
2023-04-22T04:40:38.145Z,76.49
2023-04-22T04:41:10.833Z,76.39
2023-04-22T04:41:43.479Z,76.18
2023-04-22T04:42:16.172Z,75.98
2023-04-22T04:42:47.254Z,75.94
2023-04-22T04:43:19.945Z,75.73
2023-04-22T04:43:52.599Z,75.73
2023-04-22T04:44:25.267Z,75.84
2023-04-22T04:44:57.972Z,75.84
2023-04-22T04:45:30.619Z,75.84
2023-04-22T04:46:03.340Z,75.63
2023-04-22T04:46:36.057Z,75.73
2023-04-22T04:47:08.718Z,75.84
2023-04-22T04:47:41.411Z,75.73
2023-04-22T04:48:14.134Z,75.73
2023-04-22T04:48:46.803Z,75.84
2023-04-22T04:49:19.458Z,75.84
2023-04-22T04:49:52.158Z,75.84
2023-04-22T04:50:24.814Z,75.73
2023-04-22T04:50:57.467Z,75.53
2023-04-22T04:51:30.132Z,75.43
2023-04-22T04:52:02.838Z,75.53
2023-04-22T04:52:35.532Z,75.63
2023-04-22T04:53:08.202Z,75.63
2023-04-22T04:53:40.873Z,75.63
2023-04-22T04:54:13.568Z,75.63
2023-04-22T04:54:46.211Z,75.43
2023-04-22T04:55:18.882Z,75.53
2023-04-22T04:55:51.567Z,75.63
2023-04-22T04:56:24.233Z,75.43
2023-04-22T04:56:56.893Z,75.22
2023-04-22T04:57:29.571Z,75.22
2023-04-22T04:58:02.240Z,75.18
2023-04-22T04:58:34.919Z,75.29
2023-04-22T04:59:07.573Z,75.08
2023-04-22T04:59:40.550Z,74.88
2023-04-22T05:00:06.978Z,74.88
2023-04-22T05:00:39.639Z,74.88
2023-04-22T05:01:12.369Z,75.08
2023-04-22T05:01:45.077Z,74.88
2023-04-22T05:02:17.940Z,74.98
2023-04-22T05:02:50.846Z,74.98
2023-04-22T05:03:23.663Z,74.88
2023-04-22T05:03:56.584Z,74.88
2023-04-22T05:04:29.456Z,74.88
2023-04-22T05:05:02.383Z,74.88
2023-04-22T05:05:35.169Z,74.98
2023-04-22T05:06:07.865Z,75.08
2023-04-22T05:06:40.550Z,75.29
2023-04-22T05:07:13.218Z,75.08
2023-04-22T05:07:45.920Z,74.95
2023-04-22T05:08:18.642Z,74.63
2023-04-22T05:08:51.296Z,74.43
2023-04-22T05:09:23.950Z,74.22
2023-04-22T05:09:56.627Z,74.12
2023-04-22T05:10:29.285Z,74.22
2023-04-22T05:11:01.994Z,74.33
2023-04-22T05:11:34.663Z,74.33
2023-04-22T05:12:07.319Z,74.53
2023-04-22T05:12:40.004Z,74.33
2023-04-22T05:13:12.688Z,74.02
2023-04-22T05:13:45.388Z,73.81
2023-04-22T05:14:18.078Z,73.81
2023-04-22T05:14:50.728Z,74.02
2023-04-22T05:15:23.397Z,74.22
2023-04-22T05:15:56.124Z,74.12
2023-04-22T05:16:28.802Z,73.57
2023-04-22T05:17:01.455Z,73.57
2023-04-22T05:17:34.124Z,73.47
2023-04-22T05:18:06.836Z,73.57
2023-04-22T05:18:39.556Z,73.36
2023-04-22T05:19:12.235Z,73.36
2023-04-22T05:19:44.895Z,73.36
2023-04-22T05:20:17.590Z,73.36
2023-04-22T05:20:50.224Z,73.36
2023-04-22T05:21:22.885Z,73.06
2023-04-22T05:21:55.572Z,73.36
2023-04-22T05:22:28.224Z,73.36
2023-04-22T05:23:00.900Z,73.36
2023-04-22T05:23:33.580Z,73.36
2023-04-22T05:24:06.247Z,73.13
2023-04-22T05:24:38.957Z,72.51
2023-04-22T05:25:11.595Z,72.81
2023-04-22T05:25:44.254Z,72.92
2023-04-22T05:26:16.927Z,73.13
2023-04-22T05:26:49.584Z,73.13
2023-04-22T05:27:22.254Z,72.81
2023-04-22T05:27:54.936Z,72.51
2023-04-22T05:28:27.649Z,72.51
2023-04-22T05:29:00.296Z,72.61
2023-04-22T05:29:32.962Z,72.51
2023-04-22T05:30:05.651Z,72.51
2023-04-22T05:30:38.299Z,72.38
2023-04-22T05:31:10.972Z,72.47
2023-04-22T05:31:43.671Z,72.27
2023-04-22T05:32:16.467Z,72.27
2023-04-22T05:32:49.237Z,72.68
2023-04-22T05:33:21.876Z,72.47
2023-04-22T05:33:52.976Z,72.38
2023-04-22T05:34:25.699Z,72.38
2023-04-22T05:34:58.361Z,72.47
2023-04-22T05:35:31.038Z,72.38
2023-04-22T05:36:03.723Z,72.27
2023-04-22T05:36:36.422Z,72.17
2023-04-22T05:37:09.095Z,71.96
2023-04-22T05:37:41.773Z,71.75
2023-04-22T05:38:14.450Z,71.96
2023-04-22T05:38:47.144Z,71.62
2023-04-22T05:39:19.820Z,71.51
2023-04-22T05:39:52.491Z,71.62
2023-04-22T05:40:25.155Z,71.21
2023-04-22T05:40:57.826Z,71.21
2023-04-22T05:41:30.499Z,71.21
2023-04-22T05:42:03.168Z,71.51
2023-04-22T05:42:35.853Z,71.31
2023-04-22T05:43:08.517Z,71.00
2023-04-22T05:43:41.190Z,71.00
2023-04-22T05:44:13.871Z,70.90
2023-04-22T05:44:46.542Z,71.08
2023-04-22T05:45:19.206Z,71.08
2023-04-22T05:45:51.939Z,70.97
2023-04-22T05:46:24.692Z,70.66
2023-04-22T05:46:57.385Z,70.36
2023-04-22T05:47:30.085Z,70.66
2023-04-22T05:48:02.857Z,70.66
2023-04-22T05:48:35.561Z,70.56
2023-04-22T05:49:08.230Z,70.87
2023-04-22T05:49:41.216Z,70.36
2023-04-22T05:50:07.720Z,70.56
2023-04-22T05:50:40.404Z,70.46
2023-04-22T05:51:13.062Z,70.22
2023-04-22T05:51:45.716Z,70.32
2023-04-22T05:52:18.408Z,70.22
2023-04-22T05:52:51.089Z,70.32
2023-04-22T05:53:23.805Z,70.32
2023-04-22T05:53:56.451Z,70.32
2023-04-22T05:54:29.162Z,70.22
2023-04-22T05:55:01.807Z,70.32
2023-04-22T05:55:34.482Z,70.12
2023-04-22T05:56:07.156Z,69.91
2023-04-22T05:56:39.829Z,70.01
2023-04-22T05:57:12.493Z,69.67
2023-04-22T05:57:45.149Z,69.57
2023-04-22T05:58:17.824Z,69.47
2023-04-22T05:58:50.490Z,69.88
2023-04-22T05:59:23.158Z,69.98
2023-04-22T05:59:55.840Z,69.67
2023-04-22T06:00:28.505Z,69.67
2023-04-22T06:01:01.171Z,69.67
2023-04-22T06:01:33.847Z,69.57
2023-04-22T06:02:06.742Z,69.64
2023-04-22T06:02:39.584Z,69.84
2023-04-22T06:03:12.542Z,69.84
2023-04-22T06:03:39.215Z,69.84
2023-04-22T06:04:05.798Z,69.74
2023-04-22T06:04:37.820Z,69.54
2023-04-22T06:05:04.885Z,69.43
2023-04-22T06:05:31.306Z,69.54
2023-04-22T06:06:04.045Z,69.02
2023-04-22T06:06:36.701Z,69.23
2023-04-22T06:07:09.380Z,69.20
2023-04-22T06:07:42.061Z,69.30
2023-04-22T06:08:14.723Z,69.61
2023-04-22T06:08:47.407Z,69.40
2023-04-22T06:09:20.063Z,69.20
2023-04-22T06:09:59.520Z,69.51
2023-04-22T06:10:24.859Z,69.37
2023-04-22T06:10:51.025Z,69.27
2023-04-22T06:11:23.700Z,68.55
2023-04-22T06:11:56.385Z,68.35
2023-04-22T06:12:29.059Z,68.24
2023-04-22T06:13:01.742Z,68.14
2023-04-22T06:13:34.419Z,68.21
2023-04-22T06:14:07.103Z,68.62
2023-04-22T06:14:39.758Z,68.21
2023-04-22T06:15:12.446Z,67.90
2023-04-22T06:15:45.138Z,67.70
2023-04-22T06:16:17.806Z,67.36
2023-04-22T06:16:50.460Z,67.36
2023-04-22T06:17:23.167Z,66.85
2023-04-22T06:17:55.903Z,66.24
2023-04-22T06:18:28.987Z,66.44
2023-04-22T06:18:55.332Z,66.64
2023-04-22T06:19:28.018Z,66.82
2023-04-22T06:20:00.682Z,66.72
2023-04-22T06:20:33.359Z,66.61
2023-04-22T06:21:06.042Z,66.92
2023-04-22T06:21:38.682Z,66.38
2023-04-22T06:22:11.349Z,66.17
2023-04-22T06:22:44.029Z,65.46
2023-04-22T06:23:16.710Z,65.25
2023-04-22T06:23:49.397Z,65.77
2023-04-22T06:24:22.050Z,65.97
2023-04-22T06:24:54.711Z,66.28
2023-04-22T06:25:27.390Z,66.35
2023-04-22T06:26:00.056Z,66.75
2023-04-22T06:26:32.733Z,66.25
2023-04-22T06:27:05.399Z,65.40
2023-04-22T06:27:38.047Z,64.78
2023-04-22T06:28:10.736Z,64.68
2023-04-22T06:28:43.418Z,64.17
2023-04-22T06:29:16.105Z,64.07
2023-04-22T06:29:48.773Z,64.24
2023-04-22T06:30:21.448Z,63.83
2023-04-22T06:30:54.134Z,63.73
2023-04-22T06:31:26.835Z,63.32
2023-04-22T06:31:59.481Z,62.71
2023-04-22T06:32:32.159Z,62.40
2023-04-22T06:33:04.886Z,62.92
2023-04-22T06:33:37.549Z,62.61
2023-04-22T06:34:10.224Z,62.37
2023-04-22T06:34:42.892Z,62.68
2023-04-22T06:35:15.561Z,62.37
2023-04-22T06:35:48.248Z,62.37
2023-04-22T06:36:20.927Z,62.78
2023-04-22T06:36:53.580Z,63.37
2023-04-22T06:37:26.243Z,62.85
2023-04-22T06:37:58.911Z,62.55
2023-04-22T06:38:31.596Z,62.32
2023-04-22T06:39:04.266Z,61.60
2023-04-22T06:39:36.932Z,61.30
2023-04-22T06:40:09.599Z,61.30
2023-04-22T06:40:42.279Z,61.30
2023-04-22T06:41:14.958Z,61.27
2023-04-22T06:41:47.620Z,61.27
2023-04-22T06:42:20.294Z,60.96
2023-04-22T06:42:52.947Z,60.55
2023-04-22T06:43:25.633Z,60.55
2023-04-22T06:43:58.307Z,60.55
2023-04-22T06:44:30.970Z,60.66
2023-04-22T06:45:03.636Z,60.42
2023-04-22T06:45:36.302Z,60.32
2023-04-22T06:46:08.995Z,59.71
2023-04-22T06:46:41.732Z,59.91
2023-04-22T06:47:14.414Z,59.58
2023-04-22T06:47:47.077Z,59.48
2023-04-22T06:48:19.757Z,59.48
2023-04-22T06:48:52.431Z,59.38
2023-04-22T06:49:25.116Z,59.07
2023-04-22T06:49:57.784Z,58.87
2023-04-22T06:50:30.453Z,58.64
2023-04-22T06:51:03.136Z,58.53
2023-04-22T06:51:35.824Z,58.44
2023-04-22T06:52:08.485Z,58.03
2023-04-22T06:52:41.155Z,57.92
2023-04-22T06:53:13.834Z,58.03
2023-04-22T06:53:46.524Z,57.69
2023-04-22T06:54:19.226Z,57.69
2023-04-22T06:54:51.909Z,57.08
2023-04-22T06:55:24.584Z,57.49
2023-04-22T06:55:57.251Z,57.79
2023-04-22T06:56:29.928Z,58.00
2023-04-22T06:57:02.599Z,57.97
2023-04-22T06:57:35.261Z,57.26
2023-04-22T06:58:07.935Z,56.95